Latest Weather Observations for Mardie

IDW60801

Issued at 10:33 am WST Tuesday 17 January 2017 (issued every 30 minutes, with the page automatically refreshed every 10 minutes)

About weather observations | Map of weather stations | Latest weather observations for WA | Other Formats
Station Details ID: 005008 Name: MARDIE Lat: -21.19 Lon: 115.98 Height: 11.0 m
Data from the previous 72 hours. | See also: Recent months at Mardie
Date/Time
WST
Temp
°C
App
Temp
°C
Dew
Point
°C
Rel
Hum
%
Delta-T
°C
Wind Press
QNH
hPa
Press
MSL
hPa
Rain since
9am
mm
Dir  Spd
km/h
Gust
km/h
Spd
kts
Gust
kts
17/10:30am 30.2 33.4 24.4 71 4.1 WNW 15 28 8 15 1006.1 1006.0 0.0
17/10:00am 30.3 33.8 24.2 70 4.3 WNW 13 19 7 10 1006.2 1006.1 0.0
17/09:30am 29.3 33.3 24.4 75 3.4 NW 11 17 6 9 1006.2 1006.1 0.0
17/09:00am 28.8 32.8 24.4 77 3.1 WNW 11 17 6 9 1006.3 1006.2 0.0
17/08:30am 28.4 33.2 24.2 78 2.9 NW 6 9 3 5 1006.3 1006.2 0.0
17/08:00am 28.4 33.3 24.4 79 2.8 NNE 6 9 3 5 1006.3 1006.2 0.0
17/07:30am 27.6 33.3 25.0 86 1.8 NNE 4 6 2 3 1006.2 1006.1 0.0
17/07:00am 26.6 32.2 25.7 95 0.6 E 7 9 4 5 1006.4 1006.3 0.0
17/06:30am 25.8 30.7 25.8 100 0.0 E 11 13 6 7 1006.5 1006.4 0.0
17/06:00am 25.4 31.0 25.4 100 0.0 E 6 9 3 5 1006.0 1005.9 0.0
17/05:30am 25.2 30.1 25.2 100 0.0 WSW 9 9 5 5 1005.6 1005.5 0.0
17/05:00am 25.1 31.2 25.1 100 0.0 WSW 2 7 1 4 1005.2 1005.1 0.0
17/04:30am 25.3 31.9 25.3 100 0.0 CALM 0 0 0 0 1005.0 1004.9 0.0
17/04:00am 25.3 31.9 25.3 100 0.0 CALM 0 0 0 0 1004.9 1004.8 0.0
17/03:30am 25.6 32.4 25.6 100 0.0 CALM 0 0 0 0 1004.8 1004.7 0.0
17/03:00am 25.6 31.5 24.7 95 0.6 WSW 2 4 1 2 1004.8 1004.7 0.0
17/02:30am 26.0 32.1 24.4 91 1.1 CALM 0 0 0 0 1005.0 1004.9 0.0
17/02:00am 26.0 31.8 24.0 89 1.4 CALM 0 0 0 0 1005.0 1004.9 0.0
17/01:30am 26.0 31.7 23.7 87 1.6 CALM 0 0 0 0 1005.0 1004.9 0.0
17/01:00am 25.9 31.6 23.8 88 1.4 CALM 0 0 0 0 1005.1 1005.0 0.0
17/12:30am 25.9 31.6 23.8 88 1.4 CALM 0 0 0 0 1005.6 1005.5 0.0
17/12:00am 26.0 31.4 23.3 85 1.8 CALM 0 0 0 0 1005.9 1005.8 0.0
 
Date/Time
WST
Temp
°C
App
Temp
°C
Dew
Point
°C
Rel
Hum
%
Delta-T
°C
Wind Press
QNH
hPa
Press
MSL
hPa
Rain since
9am
mm
Dir  Spd
km/h
Gust
km/h
Spd
kts
Gust
kts
16/11:30pm 26.3 31.0 23.4 84 2.0 WSW 4 6 2 3 1006.3 1006.2 0.0
16/11:00pm 26.5 30.9 23.4 83 2.1 WSW 6 7 3 4 1006.7 1006.6 0.0
16/10:30pm 26.7 30.9 23.2 81 2.4 W 6 9 3 5 1006.8 1006.7 0.0
16/10:00pm 26.9 30.6 23.2 80 2.5 W 9 11 5 6 1006.7 1006.6 0.0
16/09:30pm 27.1 30.5 23.3 80 2.6 W 11 15 6 8 1006.5 1006.4 0.0
16/09:00pm 27.2 30.1 23.2 79 2.7 W 13 17 7 9 1006.3 1006.2 0.0
16/08:30pm 27.4 30.2 23.0 77 3.0 W 13 19 7 10 1005.8 1005.7 0.0
16/08:00pm 27.6 29.6 23.0 76 3.1 WNW 17 22 9 12 1005.4 1005.3 0.0
16/07:30pm 28.0 30.0 22.9 74 3.5 WNW 17 22 9 12 1005.0 1004.9 0.0
16/07:00pm 28.2 31.0 23.6 76 3.2 W 15 22 8 12 1004.8 1004.7 0.0
16/06:30pm 28.6 31.4 23.7 75 3.4 WNW 15 22 8 12 1004.4 1004.3 0.0
16/06:00pm 29.3 31.5 24.0 73 3.7 NW 19 30 10 16 1004.1 1004.0 0.0
16/05:30pm 29.4 30.4 22.9 68 4.4 NW 22 30 12 16 1003.9 1003.8 0.0
16/05:00pm 29.7 31.1 23.6 69 4.2 NW 22 33 12 18 1003.9 1003.8 0.0
16/04:30pm 30.1 30.7 23.5 67 4.6 NW 26 37 14 20 1003.8 1003.7 0.0
16/04:00pm 30.5 31.8 23.4 66 4.9 NW 22 32 12 17 1003.8 1003.7 0.0
16/03:30pm 30.8 32.3 23.7 66 4.9 NW 22 33 12 18 1004.1 1004.0 0.0
16/03:00pm 31.1 33.0 23.7 64 5.1 NW 20 32 11 17 1004.3 1004.2 0.0
16/02:30pm 31.6 32.8 23.2 61 5.8 NW 22 30 12 16 1004.5 1004.4 0.0
16/02:00pm 31.8 34.0 23.3 60 5.9 NNW 17 28 9 15 1004.6 1004.5 0.0
16/01:30pm 31.5 32.9 22.5 59 6.1 NNW 19 30 10 16 1004.8 1004.7 0.0
16/01:00pm 31.6 34.9 23.2 61 5.8 NW 11 24 6 13 1005.0 1004.9 0.0
16/12:30pm 32.1 35.0 23.9 62 5.7 WNW 15 26 8 14 1005.1 1005.0 0.0
16/12:00pm 30.9 34.6 23.3 64 5.2 NW 9 20 5 11 1005.2 1005.1 0.0
16/11:30am 30.8 34.8 23.7 66 4.9 WNW 9 19 5 10 1005.7 1005.6 0.0
16/11:00am 30.7 35.1 24.4 69 4.4 NW 9 19 5 10 1006.0 1005.9 0.0
16/10:30am 29.6 33.4 24.0 72 3.9 WNW 11 15 6 8 1006.3 1006.2 0.0
16/10:00am 29.7 34.7 24.8 75 3.4 W 7 13 4 7 1006.4 1006.3 0.0
16/09:30am 28.5 33.6 24.7 80 2.7 WNW 6 9 3 5 1006.6 1006.5 0.0
16/09:00am 28.4 33.8 25.4 84 2.1 W 7 13 4 7 1006.6 1006.5 0.0
16/08:30am 27.9 32.8 25.3 86 1.8 WNW 9 17 5 9 1006.6 1006.5 0.0
16/08:00am 27.7 33.8 25.1 86 1.8 NW 2 6 1 3 1006.6 1006.5 0.0
16/07:30am 27.5 34.0 25.7 90 1.3 NW 2 6 1 3 1006.6 1006.5 0.0
16/07:00am 27.3 34.5 26.2 94 0.8 CALM 0 0 0 0 1006.5 1006.4 0.0
16/06:30am 27.1 34.9 27.1 100 0.0 CALM 0 0 0 0 1006.1 1006.0 0.0
16/06:00am 27.0 34.6 26.8 99 0.1 CALM 0 0 0 0 1005.8 1005.7 0.0
16/05:30am 26.9 34.4 26.6 98 0.2 CALM 0 0 0 0 1005.6 1005.5 0.0
16/05:00am 27.0 34.2 26.1 95 0.6 CALM 0 0 0 0 1005.1 1005.0 0.0
16/04:30am 27.1 34.2 26.0 94 0.8 CALM 0 0 0 0 1005.0 1004.9 0.0
16/04:00am 27.2 34.4 26.1 94 0.8 CALM 0 6 0 3 1004.8 1004.7 0.0
16/03:30am 27.2 33.9 26.0 93 0.8 NW 2 4 1 2 1005.1 1005.0 0.0
16/03:00am 27.3 34.0 25.9 92 1.0 NW 2 4 1 2 1005.1 1005.0 0.0
16/02:30am 27.3 33.4 25.7 91 1.1 NW 4 6 2 3 1005.3 1005.2 0.0
16/02:00am 27.3 33.4 25.7 91 1.1 NW 4 6 2 3 1005.2 1005.1 0.0
16/01:30am 27.4 33.2 25.8 91 1.1 NW 6 9 3 5 1005.5 1005.4 0.0
16/01:00am 27.3 33.4 26.2 94 0.8 NW 6 9 3 5 1005.8 1005.7 0.0
16/12:30am 27.3 34.0 26.6 96 0.5 NW 4 6 2 3 1006.1 1006.0 0.0
16/12:00am 27.3 34.7 26.4 95 0.6 CALM 0 0 0 0 1006.5 1006.4 0.0
 
Date/Time
WST
Temp
°C
App
Temp
°C
Dew
Point
°C
Rel
Hum
%
Delta-T
°C
Wind Press
QNH
hPa
Press
MSL
hPa
Rain since
9am
mm
Dir  Spd
km/h
Gust
km/h
Spd
kts
Gust
kts
15/11:30pm 27.4 35.0 26.7 96 0.5 CALM 0 0 0 0 1006.6 1006.5 0.0
15/11:00pm 27.4 34.7 26.3 94 0.8 CALM 0 4 0 2 1006.6 1006.5 0.0
15/10:30pm 27.4 33.7 26.0 92 1.0 NW 4 6 2 3 1006.8 1006.7 0.0
15/10:00pm 27.4 33.5 25.6 90 1.3 NW 4 6 2 3 1006.7 1006.6 0.0
15/09:30pm 27.5 33.4 25.3 88 1.5 NW 4 6 2 3 1006.5 1006.4 0.0
15/09:00pm 27.6 32.5 25.8 90 1.3 NW 11 15 6 8 1006.3 1006.2 0.0
15/08:30pm 27.5 32.7 26.3 93 0.9 NW 11 15 6 8 1006.0 1005.9 0.0
15/08:00pm 27.6 32.2 26.0 91 1.1 NNW 13 17 7 9 1005.8 1005.7 0.0
15/07:30pm 27.9 33.1 25.7 88 1.6 NNW 9 15 5 8 1005.5 1005.4 0.0
15/07:00pm 28.2 32.7 25.2 84 2.1 NNW 11 19 6 10 1005.1 1005.0 0.0
15/06:30pm 28.6 32.8 24.8 80 2.7 NNW 11 17 6 9 1004.8 1004.7 0.0
15/06:00pm 29.1 33.8 25.5 81 2.5 NNW 11 19 6 10 1004.5 1004.4 0.0
15/05:30pm 29.2 32.5 24.5 76 3.3 NNW 15 22 8 12 1004.2 1004.1 0.0
15/05:00pm 30.0 32.7 24.2 71 4.0 N 17 24 9 13 1004.1 1004.0 0.0
15/04:30pm 30.3 33.3 24.7 72 3.9 NNW 17 26 9 14 1004.1 1004.0 0.0
15/04:00pm 30.5 33.4 24.4 70 4.3 N 17 24 9 13 1003.9 1003.8 0.0
15/03:30pm 31.4 35.0 25.0 69 4.5 N 15 20 8 11 1004.0 1003.9 0.0
15/03:00pm 31.1 35.5 25.7 73 3.8 NNW 13 19 7 10 1004.1 1004.0 0.0
15/02:30pm 30.9 36.1 26.8 79 2.9 N 13 20 7 11 1004.3 1004.2 0.0
15/02:00pm 30.9 36.1 25.7 74 3.7 N 9 15 5 8 1004.7 1004.6 0.0
15/01:30pm 30.4 35.1 25.0 73 3.8 N 9 15 5 8 1005.0 1004.9 0.0
15/01:00pm 30.1 36.1 26.3 80 2.7 NE 7 15 4 8 1005.2 1005.1 0.0
15/12:30pm 29.1 34.3 26.3 85 2.0 ENE 11 19 6 10 1005.4 1005.3 0.0
15/12:00pm 29.3 35.2 26.7 86 1.9 ENE 9 15 5 8 1005.5 1005.4 0.0
15/11:30am 28.4 34.5 28.1 98 0.2 ENE 13 17 7 9 1005.7 1005.6 0.0
15/11:00am 28.4 35.1 27.9 97 0.4 ENE 9 13 5 7 1005.9 1005.8 0.0
15/10:30am 28.0 34.6 27.7 98 0.2 E 9 13 5 7 1006.2 1006.1 0.0
15/10:00am 27.5 33.9 27.5 100 0.0 E 9 13 5 7 1006.1 1006.0 0.0
15/09:30am 27.2 33.4 27.2 100 0.0 E 9 11 5 6 1006.2 1006.1 0.0
15/09:00am 26.9 32.9 26.9 100 0.0 E 9 13 5 7 1006.3 1006.2 0.0
15/08:30am 26.4 31.3 26.4 100 0.0 ESE 13 15 7 8 1006.4 1006.3 0.0
15/08:00am 25.8 30.3 25.8 100 0.0 ENE 13 17 7 9 1006.2 1006.1 0.0
15/07:30am 25.4 29.6 25.4 100 0.0 E 13 15 7 8 1006.2 1006.1 0.0
15/07:00am 25.1 29.1 25.1 100 0.0 ESE 13 17 7 9 1006.1 1006.0 0.0
15/06:30am 25.4 30.8 25.4 100 0.0 S 7 13 4 7 1006.0 1005.9 0.0
15/06:00am 26.3 32.5 26.3 100 0.0 S 6 7 3 4 1005.6 1005.5 0.0
15/05:30am 26.2 32.3 26.2 100 0.0 S 6 7 3 4 1005.3 1005.2 0.0
15/05:00am 26.1 32.5 26.1 100 0.0 S 4 6 2 3 1005.2 1005.1 0.0
15/04:30am 26.2 32.3 26.2 100 0.0 S 6 7 3 4 1005.0 1004.9 0.0
15/04:00am 26.1 32.9 26.1 100 0.0 S 2 4 1 2 1004.8 1004.7 0.0
15/03:30am 25.9 31.2 25.9 100 0.0 S 9 11 5 6 1004.7 1004.6 0.0
15/03:00am 26.0 31.0 26.0 100 0.0 S 11 15 6 8 1004.5 1004.4 0.0
15/02:30am 26.0 31.8 26.0 100 0.0 S 7 11 4 6 1004.8 1004.7 0.0
15/02:00am 26.0 31.0 26.0 100 0.0 S 11 15 6 8 1005.1 1005.0 0.0
15/01:30am 26.0 31.8 26.0 100 0.0 ENE 7 11 4 6 1005.4 1005.3 0.0
15/01:00am 26.2 32.3 26.2 100 0.0 ENE 6 7 3 4 1005.7 1005.6 0.0
15/12:30am 26.0 33.1 26.0 100 0.0 CALM 0 0 0 0 1005.8 1005.7 0.0
15/12:00am 26.1 33.3 26.1 100 0.0 CALM 0 4 0 2 1005.7 1005.6 0.0
 
Date/Time
WST
Temp
°C
App
Temp
°C
Dew
Point
°C
Rel
Hum
%
Delta-T
°C
Wind Press
QNH
hPa
Press
MSL
hPa
Rain since
9am
mm
Dir  Spd
km/h
Gust
km/h
Spd
kts
Gust
kts
14/11:30pm 26.0 32.7 26.0 100 0.0 ENE 2 6 1 3 1005.8 1005.7 0.0
14/11:00pm 26.1 33.3 26.1 100 0.0 CALM 0 0 0 0 1006.5 1006.4 0.0
14/10:30pm 26.2 32.7 26.2 100 0.0 ENE 4 7 2 4 1006.7 1006.6 0.0
14/10:00pm 26.6 32.8 26.6 100 0.0 ENE 7 13 4 7 1006.8 1006.7 0.0
14/09:30pm 26.7 33.1 26.7 100 0.0 E 6 9 3 5 1006.7 1006.6 0.0
14/09:00pm 26.4 32.6 26.4 100 0.0 WSW 6 7 3 4 1006.2 1006.1 0.0
14/08:30pm 26.8 34.1 26.8 100 0.0 SSE 2 11 1 6 1006.1 1006.0 0.0
14/08:00pm 26.1 31.9 26.1 100 0.0 SSE 7 11 4 6 1006.0 1005.9 0.0
14/07:30pm 25.8 31.1 25.8 100 0.0 S 9 13 5 7 1004.5 1004.4 0.0
14/07:00pm 25.7 32.6 25.7 100 0.0 CALM 0 0 0 0 1003.9 1003.8 0.0
14/06:30pm 25.7 30.5 25.7 100 0.0 N 11 17 6 9 1002.8 1002.7 0.0
14/06:00pm 25.4 28.9 25.4 100 0.0 NNE 17 22 9 12 1002.8 1002.7 0.0
14/05:30pm 25.6 28.3 25.6 100 0.0 SE 22 33 12 18 1004.7 1004.6 0.0
14/05:09pm 29.2 28.4 22.4 66 4.6 SE 30 56 16 30 1004.4 1004.3 0.0
14/05:04pm 30.5 31.6 21.3 58 6.2 ENE 17 48 9 26 1004.4 1004.3 0.0
14/05:00pm 31.4 35.4 23.8 64 5.3 N 9 19 5 10 1004.0 1003.9 0.0
14/04:30pm 31.5 32.9 22.8 60 6.0 NNW 20 30 11 16 1002.5 1002.4 0.0
14/04:00pm 31.4 33.3 23.8 64 5.3 N 20 32 11 17 1002.1 1002.0 0.0
14/03:30pm 33.4 34.9 23.7 56 6.8 NNW 22 32 12 17 1002.2 1002.1 0.0
14/03:00pm 33.6 34.5 23.3 55 7.2 NW 24 32 13 17 1002.3 1002.2 0.0
14/02:30pm 34.0 35.5 23.7 55 7.2 NW 22 28 12 15 1002.5 1002.4 0.0
14/02:00pm 35.9 37.7 23.5 48 8.7 NW 20 28 11 15 1002.8 1002.7 0.0
14/01:30pm 35.4 38.1 23.4 50 8.4 WNW 15 24 8 13 1003.3 1003.2 0.0
14/01:00pm 34.4 37.0 24.6 56 6.9 WNW 19 28 10 15 1003.7 1003.6 0.0
14/12:30pm 34.1 37.9 24.1 56 7.0 NW 11 20 6 11 1004.0 1003.9 0.0
14/12:00pm 33.3 36.4 24.2 59 6.4 NW 15 20 8 11 1004.3 1004.2 0.0
14/11:30am 33.1 35.7 24.6 61 6.0 NW 19 24 10 13 1004.6 1004.5 0.0
14/11:00am 33.0 36.3 23.9 59 6.4 WNW 13 22 7 12 1005.0 1004.9 0.0

Other Formats:

Comma delimited format used in spreadsheet applications
http://www.bom.gov.au/fwo/IDW60801/IDW60801.94306.axf

JavaScript Object Notation format (JSON) in row-major order
http://www.bom.gov.au/fwo/IDW60801/IDW60801.94306.json